Time;durP1;ratioP1;P1;durP2;ratioP2;P2;SDS_P1;SDS_P2;PMS_P1;PMS_P2;Temp;Humidity;BMP_temperature;BMP_pressure;BME280_temperature;BME280_humidity;BME280_pressure;Samples;Min_cycle;Max_cycle;Signal;HPM_P1;HPM_P2
2022/07/14 00:01:36;;;;;;;9.37;3.00;;;;;;;;;;5036218;28;20179;-67
2022/07/14 00:04:03;;;;;;;7.67;2.80;;;;;;;;;;5036059;28;20256;-68
2022/07/14 00:06:29;;;;;;;11.37;3.07;;;;;;;;;;5053951;28;20183;-68
2022/07/14 00:08:55;;;;;;;8.87;3.10;;;;;;;;;;5036222;28;20577;-67
2022/07/14 00:11:21;;;;;;;9.37;3.23;;;;;;;;;;5035983;28;20232;-68
2022/07/14 00:13:47;;;;;;;11.80;3.67;;;;;;;;;;5053863;28;20183;-68
2022/07/14 00:16:13;;;;;;;10.67;3.13;;;;;;;;;;5035895;28;20185;-68
2022/07/14 00:18:43;;;;;;;16.73;3.07;;;;;;;;;;5053729;28;20226;-68
2022/07/14 00:21:09;;;;;;;11.33;3.53;;;;;;;;;;5053749;28;20201;-68
2022/07/14 00:23:35;;;;;;;12.07;3.80;;;;;;;;;;5035725;28;20214;-68
2022/07/14 00:26:03;;;;;;;11.37;3.20;;;;;;;;;;5053612;28;20197;-67
2022/07/14 00:28:29;;;;;;;9.83;3.53;;;;;;;;;;5053669;28;20194;-68
2022/07/14 00:30:55;;;;;;;9.63;3.53;;;;;;;;;;5053356;28;20174;-68
2022/07/14 00:33:21;;;;;;;12.37;3.33;;;;;;;;;;5053216;28;20202;-68
2022/07/14 00:35:47;;;;;;;7.73;3.57;;;;;;;;;;5053724;28;20631;-68
2022/07/14 00:38:13;;;;;;;9.77;3.60;;;;;;;;;;5053295;28;20202;-67
2022/07/14 00:40:39;;;;;;;15.07;3.30;;;;;;;;;;5053412;28;20182;-67
2022/07/14 00:43:05;;;;;;;11.60;3.67;;;;;;;;;;5053302;28;20174;-68
2022/07/14 00:45:31;;;;;;;8.47;2.57;;;;;;;;;;5053524;28;20253;-68
2022/07/14 00:47:57;;;;;;;13.17;3.93;;;;;;;;;;5053404;28;20195;-68
2022/07/14 00:50:23;;;;;;;7.17;3.33;;;;;;;;;;5053538;28;20201;-68
2022/07/14 00:52:50;;;;;;;10.73;3.30;;;;;;;;;;5053186;28;20265;-68
2022/07/14 00:55:16;;;;;;;7.10;2.90;;;;;;;;;;5035350;28;20594;-68
2022/07/14 00:57:43;;;;;;;8.40;2.80;;;;;;;;;;5035194;28;20236;-68
2022/07/14 01:00:10;;;;;;;10.20;3.60;;;;;;;;;;5053388;28;20182;-68
2022/07/14 01:02:36;;;;;;;8.80;3.00;;;;;;;;;;5035221;28;20170;-68
2022/07/14 01:05:03;;;;;;;10.23;2.70;;;;;;;;;;5052964;28;20281;-68
2022/07/14 01:07:29;;;;;;;6.63;3.43;;;;;;;;;;5052843;28;20175;-67
2022/07/14 01:09:55;;;;;;;7.03;3.43;;;;;;;;;;5053330;28;20217;-68
2022/07/14 01:12:21;;;;;;;14.07;3.80;;;;;;;;;;5035112;28;20182;-68
2022/07/14 01:14:47;;;;;;;8.90;3.53;;;;;;;;;;5053779;28;20210;-67
2022/07/14 01:17:13;;;;;;;9.37;3.27;;;;;;;;;;5035209;28;20185;-68
2022/07/14 01:19:39;;;;;;;6.97;3.47;;;;;;;;;;5053182;28;20185;-68
2022/07/14 01:22:06;;;;;;;16.43;4.17;;;;;;;;;;5053171;28;20193;-67
2022/07/14 01:24:32;;;;;;;11.73;3.73;;;;;;;;;;5052778;28;20211;-67
2022/07/14 01:26:58;;;;;;;11.97;4.17;;;;;;;;;;5053154;28;20174;-67
2022/07/14 01:29:25;;;;;;;14.60;3.23;;;;;;;;;;5034940;28;20283;-68
2022/07/14 01:31:51;;;;;;;7.47;2.97;;;;;;;;;;5052760;28;20174;-68
2022/07/14 01:34:17;;;;;;;11.83;3.43;;;;;;;;;;5053097;28;20175;-67
2022/07/14 01:36:43;;;;;;;11.70;3.40;;;;;;;;;;5053579;28;20175;-67
2022/07/14 01:39:09;;;;;;;6.80;3.50;;;;;;;;;;5052868;28;20194;-67
2022/07/14 01:41:35;;;;;;;8.43;3.00;;;;;;;;;;5053132;28;20186;-67
2022/07/14 01:44:01;;;;;;;9.73;3.47;;;;;;;;;;5038045;28;20573;-67
2022/07/14 01:46:27;;;;;;;10.97;3.63;;;;;;;;;;5038934;28;20256;-69
2022/07/14 01:48:53;;;;;;;6.83;3.00;;;;;;;;;;5056507;28;20201;-68
2022/07/14 01:51:20;;;;;;;13.77;3.67;;;;;;;;;;5056723;28;20179;-65
2022/07/14 01:53:46;;;;;;;13.33;3.80;;;;;;;;;;5057093;28;20174;-67
2022/07/14 01:56:12;;;;;;;7.47;3.13;;;;;;;;;;5056463;28;20193;-67
2022/07/14 01:58:38;;;;;;;5.60;3.20;;;;;;;;;;5056378;28;20198;-67
2022/07/14 02:03:55;;;;;;;11.97;3.73;;;;;;;;;;5056827;28;20209;-67
2022/07/14 02:06:21;;;;;;;14.67;3.50;;;;;;;;;;5056227;28;20182;-67
2022/07/14 02:08:47;;;;;;;8.23;3.73;;;;;;;;;;5056343;28;20214;-68
2022/07/14 02:13:57;;;;;;;7.00;3.37;;;;;;;;;;5056470;28;20740;-67
2022/07/14 02:16:24;;;;;;;14.30;3.77;;;;;;;;;;5056194;28;20182;-68
2022/07/14 02:18:50;;;;;;;11.23;4.10;;;;;;;;;;5056094;28;20324;-68
2022/07/14 02:21:16;;;;;;;8.43;4.40;;;;;;;;;;5056061;28;20170;-67
2022/07/14 02:23:41;;;;;;;7.40;3.33;;;;;;;;;;5056370;28;20531;-68
2022/07/14 02:26:14;;;;;;;12.03;4.00;;;;;;;;;;5056206;28;20206;-68
2022/07/14 02:28:40;;;;;;;8.97;3.47;;;;;;;;;;5038041;28;20199;-67
2022/07/14 02:31:06;;;;;;;9.50;3.37;;;;;;;;;;5056047;28;20178;-67
2022/07/14 02:33:33;;;;;;;6.80;3.57;;;;;;;;;;5056400;28;20211;-68
2022/07/14 02:35:59;;;;;;;9.47;3.57;;;;;;;;;;5056242;28;20261;-68
2022/07/14 02:38:25;;;;;;;11.57;3.83;;;;;;;;;;5055741;28;20199;-68
2022/07/14 02:40:50;;;;;;;10.40;3.70;;;;;;;;;;5055682;28;20200;-67
2022/07/14 02:43:16;;;;;;;10.47;3.87;;;;;;;;;;5056230;28;20624;-68
2022/07/14 02:45:43;;;;;;;10.93;4.00;;;;;;;;;;5037728;28;20646;-67
2022/07/14 02:48:09;;;;;;;8.03;3.80;;;;;;;;;;5055830;28;20194;-68
2022/07/14 02:50:37;;;;;;;9.17;3.87;;;;;;;;;;5055749;28;20182;-68
2022/07/14 02:53:04;;;;;;;10.97;4.20;;;;;;;;;;5055689;28;20250;-68
2022/07/14 02:55:30;;;;;;;10.53;3.97;;;;;;;;;;5037011;28;20186;-68
2022/07/14 02:57:56;;;;;;;15.17;3.80;;;;;;;;;;5037545;28;20199;-68
2022/07/14 03:00:22;;;;;;;13.77;4.87;;;;;;;;;;5055506;28;20186;-67
2022/07/14 03:02:48;;;;;;;8.83;3.57;;;;;;;;;;5055555;28;20190;-68
2022/07/14 03:05:16;;;;;;;11.73;4.00;;;;;;;;;;5055309;28;20198;-68
2022/07/14 03:07:42;;;;;;;14.93;4.03;;;;;;;;;;5037116;28;20202;-68
2022/07/14 03:10:08;;;;;;;8.90;4.03;;;;;;;;;;5055408;28;20170;-68
2022/07/14 03:12:34;;;;;;;14.77;4.50;;;;;;;;;;5037247;28;20269;-68
2022/07/14 03:15:00;;;;;;;13.60;4.10;;;;;;;;;;5037169;28;20602;-68
2022/07/14 03:17:26;;;;;;;8.00;4.17;;;;;;;;;;5055051;28;20206;-68
2022/07/14 03:19:53;;;;;;;11.10;4.23;;;;;;;;;;5037016;28;20272;-68
2022/07/14 03:22:18;;;;;;;11.30;3.53;;;;;;;;;;5055242;28;20177;-68
2022/07/14 03:24:44;;;;;;;10.63;3.80;;;;;;;;;;5036946;28;20313;-67
2022/07/14 03:27:10;;;;;;;11.37;3.87;;;;;;;;;;5054791;28;20573;-68
2022/07/14 03:29:40;;;;;;;12.13;3.90;;;;;;;;;;5036921;28;20198;-68
2022/07/14 03:32:06;;;;;;;10.90;3.43;;;;;;;;;;5054885;28;20177;-68
2022/07/14 03:34:32;;;;;;;14.73;3.60;;;;;;;;;;5054623;28;20189;-67
2022/07/14 03:36:59;;;;;;;17.87;4.27;;;;;;;;;;5054677;28;20635;-68
2022/07/14 03:39:25;;;;;;;18.27;4.77;;;;;;;;;;5055593;28;20198;-68
2022/07/14 03:41:51;;;;;;;15.27;5.73;;;;;;;;;;5057765;28;20205;-68
2022/07/14 03:44:17;;;;;;;10.20;4.57;;;;;;;;;;5056235;28;20229;-68
2022/07/14 03:46:43;;;;;;;11.17;4.83;;;;;;;;;;5054682;28;20643;-68
2022/07/14 03:49:09;;;;;;;14.63;5.07;;;;;;;;;;5036687;28;20204;-68
2022/07/14 03:51:40;;;;;;;15.60;5.10;;;;;;;;;;5054730;28;20588;-68
2022/07/14 03:54:06;;;;;;;10.90;4.40;;;;;;;;;;5054684;28;20174;-68
2022/07/14 03:56:32;;;;;;;10.57;4.37;;;;;;;;;;5054510;28;20183;-68
2022/07/14 03:58:58;;;;;;;9.63;3.90;;;;;;;;;;5036334;28;20251;-68
2022/07/14 04:01:24;;;;;;;12.20;4.63;;;;;;;;;;5054470;28;20209;-68
2022/07/14 04:03:50;;;;;;;12.00;4.10;;;;;;;;;;5036169;28;20210;-67
2022/07/14 04:06:16;;;;;;;10.93;4.20;;;;;;;;;;5053305;28;20304;-66
2022/07/14 04:08:44;;;;;;;12.63;4.10;;;;;;;;;;5053987;28;20590;-67
2022/07/14 04:11:10;;;;;;;13.75;4.20;;;;;;;;;;5053119;28;20834;-67
2022/07/14 04:13:36;;;;;;;10.97;3.20;;;;;;;;;;5054492;28;20178;-67
2022/07/14 04:16:02;;;;;;;11.50;3.73;;;;;;;;;;5035994;28;20317;-67
2022/07/14 04:18:29;;;;;;;8.63;3.63;;;;;;;;;;5052663;28;20448;-67
2022/07/14 04:20:55;;;;;;;12.93;3.90;;;;;;;;;;5054148;28;20174;-67
2022/07/14 04:23:21;;;;;;;14.27;3.77;;;;;;;;;;5053655;28;20193;-67
2022/07/14 04:25:48;;;;;;;10.33;3.33;;;;;;;;;;5035810;28;20174;-67
2022/07/14 04:28:14;;;;;;;15.07;4.60;;;;;;;;;;5035782;28;20202;-67
2022/07/14 04:30:40;;;;;;;12.87;4.63;;;;;;;;;;5053620;28;20185;-67
2022/07/14 04:33:06;;;;;;;12.63;3.97;;;;;;;;;;5053603;28;20171;-67
2022/07/14 04:35:32;;;;;;;9.93;3.27;;;;;;;;;;5053674;28;20189;-67
2022/07/14 04:37:58;;;;;;;7.67;3.33;;;;;;;;;;5053685;28;20198;-67
2022/07/14 04:40:24;;;;;;;13.33;3.60;;;;;;;;;;5053571;28;20174;-67
2022/07/14 04:42:50;;;;;;;14.17;4.20;;;;;;;;;;5053433;28;20183;-67
2022/07/14 04:45:15;;;;;;;;;;;;;;;;;;5053980;28;20065;-67
2022/07/14 04:47:41;;;;;;;;;;;;;;;;;;5053813;28;19946;-67
2022/07/14 04:52:52;;;;;;;;;;;;;;;;;;5054206;28;20292;-67
2022/07/14 04:55:18;;;;;;;;;;;;;;;;;;5053946;28;19904;-67
2022/07/14 04:57:44;;;;;;;;;;;;;;;;;;5054144;28;19959;-67
2022/07/14 05:00:10;;;;;;;;;;;;;;;;;;5035787;28;20396;-67
2022/07/14 05:02:36;;;;;;;;;;;;;;;;;;5054007;28;19912;-67
2022/07/14 05:05:02;;;;;;;;;;;;;;;;;;5035649;28;19909;-67
2022/07/14 05:07:28;;;;;;;;;;;;;;;;;;5053300;28;19905;-67
2022/07/14 05:09:53;;;;;;;;;;;;;;;;;;5053791;28;19916;-67
2022/07/14 05:12:19;;;;;;;;;;;;;;;;;;5035484;28;19994;-67
2022/07/14 05:14:45;;;;;;;;;;;;;;;;;;5053363;28;19977;-67
2022/07/14 05:17:11;;;;;;;;;;;;;;;;;;5035069;28;20368;-67
2022/07/14 05:19:37;;;;;;;;;;;;;;;;;;5053452;28;19905;-67
2022/07/14 05:22:03;;;;;;;;;;;;;;;;;;5053316;28;19904;-67
2022/07/14 05:24:29;;;;;;;;;;;;;;;;;;5035382;28;20007;-67
2022/07/14 05:26:57;;;;;;;15.93;4.47;;;;;;;;;;5035066;28;19908;-67
2022/07/14 05:29:23;;;;;;;10.53;4.20;;;;;;;;;;5052864;28;20277;-67
2022/07/14 05:31:49;;;;;;;14.53;4.33;;;;;;;;;;5034954;28;20178;-67
2022/07/14 05:34:15;;;;;;;13.87;4.87;;;;;;;;;;5052854;28;20661;-67
2022/07/14 05:36:41;;;;;;;9.03;3.87;;;;;;;;;;5052724;28;20182;-67
2022/07/14 05:39:07;;;;;;;9.70;3.43;;;;;;;;;;5052675;28;20190;-66
2022/07/14 05:41:32;;;;;;;12.40;4.40;;;;;;;;;;5052696;28;20182;-67
2022/07/14 05:43:58;;;;;;;17.23;4.80;;;;;;;;;;5034758;28;20206;-67
2022/07/14 05:46:24;;;;;;;14.37;4.17;;;;;;;;;;5052637;28;20224;-67
2022/07/14 05:48:50;;;;;;;17.33;4.70;;;;;;;;;;5034723;28;20202;-67
2022/07/14 05:51:17;;;;;;;11.77;4.33;;;;;;;;;;5052566;28;20185;-67
2022/07/14 05:53:44;;;;;;;13.27;3.93;;;;;;;;;;5052839;28;20187;-67
2022/07/14 05:56:11;;;;;;;13.10;3.70;;;;;;;;;;5052531;28;20182;-67
2022/07/14 05:58:37;;;;;;;11.77;3.30;;;;;;;;;;5034555;28;20230;-66
2022/07/14 06:01:03;;;;;;;9.70;3.77;;;;;;;;;;5052527;28;20175;-67
2022/07/14 06:03:30;;;;;;;15.33;4.87;;;;;;;;;;5052589;28;20178;-68
2022/07/14 06:05:56;;;;;;;17.47;5.10;;;;;;;;;;5052472;28;20179;-67
2022/07/14 06:08:22;;;;;;;16.13;5.60;;;;;;;;;;5052247;28;20206;-67
2022/07/14 06:10:48;;;;;;;16.10;6.07;;;;;;;;;;5052503;28;20188;-67
2022/07/14 06:13:14;;;;;;;12.57;5.30;;;;;;;;;;5052478;28;20178;-67
2022/07/14 06:15:40;;;;;;;16.17;5.67;;;;;;;;;;5052688;28;20170;-67
2022/07/14 06:18:06;;;;;;;15.80;4.80;;;;;;;;;;5052508;28;20552;-67
2022/07/14 06:20:32;;;;;;;14.37;5.20;;;;;;;;;;5052408;28;20288;-67
2022/07/14 06:22:57;;;;;;;16.70;5.80;;;;;;;;;;5052372;28;20183;-67
2022/07/14 06:25:24;;;;;;;14.80;5.40;;;;;;;;;;5052279;28;20577;-67
2022/07/14 06:27:50;;;;;;;13.77;4.90;;;;;;;;;;5034348;28;20195;-67
2022/07/14 06:30:15;;;;;;;16.87;5.00;;;;;;;;;;5053787;28;20245;-67
2022/07/14 06:32:42;;;;;;;10.27;4.10;;;;;;;;;;5039248;28;20178;-67
2022/07/14 06:35:08;;;;;;;16.10;4.87;;;;;;;;;;5037931;28;20236;-67
2022/07/14 06:37:37;;;;;;;9.97;3.83;;;;;;;;;;5055619;28;20225;-67
2022/07/14 06:40:05;;;;;;;13.07;3.70;;;;;;;;;;5055964;28;20552;-67
2022/07/14 06:42:32;;;;;;;12.37;2.97;;;;;;;;;;5055602;28;20190;-67
2022/07/14 06:44:58;;;;;;;9.37;3.20;;;;;;;;;;5037645;28;20210;-67
2022/07/14 06:47:23;;;;;;;11.87;3.33;;;;;;;;;;5055830;28;20310;-67
2022/07/14 06:49:49;;;;;;;15.87;3.57;;;;;;;;;;5037654;28;20175;-67
2022/07/14 06:52:15;;;;;;;9.60;3.50;;;;;;;;;;5037561;28;20178;-67
2022/07/14 06:54:41;;;;;;;6.20;2.93;;;;;;;;;;5055920;28;20201;-67
2022/07/14 06:57:07;;;;;;;10.53;3.43;;;;;;;;;;5055626;28;20189;-67
2022/07/14 06:59:33;;;;;;;9.07;3.57;;;;;;;;;;5055138;28;20198;-66
2022/07/14 07:01:59;;;;;;;13.73;4.23;;;;;;;;;;5037421;28;20609;-67
2022/07/14 07:04:26;;;;;;;10.87;3.80;;;;;;;;;;5037266;28;20201;-67
2022/07/14 07:06:52;;;;;;;11.90;3.67;;;;;;;;;;5055165;28;20174;-67
2022/07/14 07:09:19;;;;;;;8.23;3.40;;;;;;;;;;5054866;28;20213;-67
2022/07/14 07:11:49;;;;;;;14.83;3.43;;;;;;;;;;5055586;28;20175;-67
2022/07/14 07:14:15;;;;;;;13.57;3.63;;;;;;;;;;5055587;28;20205;-67
2022/07/14 07:16:41;;;;;;;13.17;3.63;;;;;;;;;;5054962;28;20183;-67
2022/07/14 07:19:07;;;;;;;16.10;4.50;;;;;;;;;;5037061;28;20201;-67
2022/07/14 07:21:33;;;;;;;11.57;3.67;;;;;;;;;;5055148;28;20171;-67
2022/07/14 07:23:59;;;;;;;20.83;3.90;;;;;;;;;;5054813;28;20259;-67
2022/07/14 07:26:25;;;;;;;7.53;3.07;;;;;;;;;;5055002;28;20212;-67
2022/07/14 07:28:52;;;;;;;15.77;3.47;;;;;;;;;;5054675;28;20202;-67
2022/07/14 07:31:19;;;;;;;11.73;3.47;;;;;;;;;;5055064;28;20173;-67
2022/07/14 07:33:45;;;;;;;9.40;3.73;;;;;;;;;;5054643;28;20182;-67
2022/07/14 07:36:11;;;;;;;7.23;2.60;;;;;;;;;;5036806;28;20567;-67
2022/07/14 07:38:37;;;;;;;11.30;3.00;;;;;;;;;;5054522;28;20198;-67
2022/07/14 07:41:03;;;;;;;7.50;2.97;;;;;;;;;;5036277;28;20225;-66
2022/07/14 07:43:29;;;;;;;9.33;2.70;;;;;;;;;;5054408;28;20639;-67
2022/07/14 07:45:55;;;;;;;7.97;2.83;;;;;;;;;;5054273;28;20224;-67
2022/07/14 07:48:21;;;;;;;10.00;3.10;;;;;;;;;;5036337;28;20571;-67
2022/07/14 07:50:47;;;;;;;7.23;2.50;;;;;;;;;;5054520;28;20217;-67
2022/07/14 07:53:13;;;;;;;4.87;2.07;;;;;;;;;;5054121;28;20225;-68
2022/07/14 07:55:39;;;;;;;5.07;2.60;;;;;;;;;;5054440;28;20213;-67
2022/07/14 07:58:07;;;;;;;7.13;2.17;;;;;;;;;;5054340;28;20198;-67
2022/07/14 08:00:33;;;;;;;7.90;2.53;;;;;;;;;;5054314;28;20174;-67
2022/07/14 08:03:01;;;;;;;8.43;2.73;;;;;;;;;;5054098;28;20186;-67
2022/07/14 08:05:27;;;;;;;7.83;2.83;;;;;;;;;;5054221;28;20773;-67
2022/07/14 08:07:53;;;;;;;8.10;2.47;;;;;;;;;;5053906;28;20583;-67
2022/07/14 08:10:20;;;;;;;11.40;2.93;;;;;;;;;;5054253;28;20575;-67
2022/07/14 08:12:46;;;;;;;7.33;2.67;;;;;;;;;;5053724;28;20591;-67
2022/07/14 08:15:12;;;;;;;4.40;2.27;;;;;;;;;;5054069;28;20292;-67
2022/07/14 08:17:39;;;;;;;6.60;2.27;;;;;;;;;;5035792;28;20291;-67
2022/07/14 08:20:06;;;;;;;6.07;2.40;;;;;;;;;;5053713;28;20179;-67
2022/07/14 08:22:33;;;;;;;9.37;2.37;;;;;;;;;;5035836;28;20190;-67
2022/07/14 08:24:59;;;;;;;7.10;2.70;;;;;;;;;;5053866;28;20252;-67
2022/07/14 08:27:26;;;;;;;5.23;2.10;;;;;;;;;;5035689;28;20613;-67
2022/07/14 08:29:52;;;;;;;6.00;2.50;;;;;;;;;;5053793;28;20174;-67
2022/07/14 08:32:33;;;;;;;6.57;2.37;;;;;;;;;;5053537;28;20185;-67
2022/07/14 08:35:00;;;;;;;9.80;2.80;;;;;;;;;;5035679;28;20179;-68
2022/07/14 08:37:27;;;;;;;4.77;2.30;;;;;;;;;;5035515;28;20189;-67
2022/07/14 08:39:52;;;;;;;5.17;2.70;;;;;;;;;;5053693;28;20175;-67
2022/07/14 08:42:18;;;;;;;9.73;2.97;;;;;;;;;;5053393;28;20194;-67
2022/07/14 08:44:44;;;;;;;4.57;2.00;;;;;;;;;;5053310;28;20336;-67
2022/07/14 08:47:10;;;;;;;6.40;2.37;;;;;;;;;;5053678;28;20225;-68
2022/07/14 08:49:37;;;;;;;5.83;2.60;;;;;;;;;;5054332;28;20606;-67
2022/07/14 08:52:03;;;;;;;6.60;2.67;;;;;;;;;;5052691;28;20179;-67
2022/07/14 08:54:29;;;;;;;4.87;2.10;;;;;;;;;;5053353;28;20184;-67
2022/07/14 08:56:55;;;;;;;4.77;2.10;;;;;;;;;;5053554;28;20181;-67
2022/07/14 08:59:21;;;;;;;5.70;2.07;;;;;;;;;;5053078;28;20210;-67
2022/07/14 09:01:50;;;;;;;7.47;2.50;;;;;;;;;;5053262;28;20661;-67
2022/07/14 09:04:16;;;;;;;4.03;2.10;;;;;;;;;;5035249;28;20210;-67
2022/07/14 09:06:50;;;;;;;5.43;2.00;;;;;;;;;;5035390;28;20182;-67
2022/07/14 09:09:27;;;;;;;4.33;2.00;;;;;;;;;;5053455;28;20210;-67
2022/07/14 09:12:06;;;;;;;6.37;2.07;;;;;;;;;;5053703;28;20202;-67
2022/07/14 09:17:23;;;;;;;3.67;1.80;;;;;;;;;;5021980;28;20191;-67
2022/07/14 09:20:21;;;;;;;4.00;1.83;;;;;;;;;;5053087;28;20170;-67
2022/07/14 09:22:47;;;;;;;5.80;2.30;;;;;;;;;;5009467;28;20200;-67
2022/07/14 09:25:17;;;;;;;7.20;2.10;;;;;;;;;;5052753;28;20199;-67
2022/07/14 09:27:45;;;;;;;5.63;1.77;;;;;;;;;;5052810;28;20195;-67
2022/07/14 09:30:11;;;;;;;3.83;2.10;;;;;;;;;;5034848;28;20186;-67
2022/07/14 09:32:51;;;;;;;5.17;1.80;;;;;;;;;;5052775;28;20185;-67
2022/07/14 09:35:26;;;;;;;5.87;2.03;;;;;;;;;;5052702;28;20181;-67
2022/07/14 09:37:53;;;;;;;4.90;1.60;;;;;;;;;;5052793;28;20202;-68
2022/07/14 09:40:25;;;;;;;5.87;1.83;;;;;;;;;;5035072;28;20190;-67
2022/07/14 09:42:53;;;;;;;3.73;2.20;;;;;;;;;;5053182;28;20583;-68
2022/07/14 09:45:21;;;;;;;5.43;2.40;;;;;;;;;;5052696;28;20205;-67
2022/07/14 09:47:51;;;;;;;6.57;2.43;;;;;;;;;;5052793;28;20205;-67
2022/07/14 09:50:32;;;;;;;5.87;2.03;;;;;;;;;;5052890;28;20174;-66
2022/07/14 09:52:58;;;;;;;4.50;1.60;;;;;;;;;;5052676;28;20186;-66
2022/07/14 09:55:24;;;;;;;6.20;2.10;;;;;;;;;;5035018;28;20182;-66
2022/07/14 09:57:51;;;;;;;3.70;1.90;;;;;;;;;;5052437;28;20269;-66
2022/07/14 10:00:19;;;;;;;4.20;2.20;;;;;;;;;;5052752;28;20182;-66
2022/07/14 10:02:46;;;;;;;4.50;2.57;;;;;;;;;;5052638;28;20223;-66
2022/07/14 10:05:12;;;;;;;4.30;1.80;;;;;;;;;;5055514;28;20202;-67
2022/07/14 10:07:41;;;;;;;3.03;1.80;;;;;;;;;;5056201;28;20263;-66
2022/07/14 10:10:08;;;;;;;5.17;1.80;;;;;;;;;;5038420;28;20588;-66
2022/07/14 10:12:36;;;;;;;7.30;1.87;;;;;;;;;;5056171;28;20202;-66
2022/07/14 10:15:03;;;;;;;4.67;1.60;;;;;;;;;;5055995;28;20232;-66
2022/07/14 10:17:30;;;;;;;5.20;1.93;;;;;;;;;;5055908;28;20187;-66
2022/07/14 10:19:56;;;;;;;4.47;1.77;;;;;;;;;;5056430;28;20179;-66
2022/07/14 10:22:23;;;;;;;6.50;2.20;;;;;;;;;;5056204;28;20210;-66
2022/07/14 10:24:50;;;;;;;3.73;1.60;;;;;;;;;;5055597;28;20202;-66
2022/07/14 10:27:19;;;;;;;6.57;2.00;;;;;;;;;;5055760;28;20182;-67
2022/07/14 10:29:52;;;;;;;9.07;1.77;;;;;;;;;;5055565;28;20202;-66
2022/07/14 10:32:27;;;;;;;3.40;1.57;;;;;;;;;;5037876;28;20292;-67
2022/07/14 10:35:05;;;;;;;4.40;2.00;;;;;;;;;;5055642;28;20182;-67
2022/07/14 10:37:40;;;;;;;7.60;1.90;;;;;;;;;;5055669;28;20557;-66
2022/07/14 10:40:12;;;;;;;4.30;1.67;;;;;;;;;;5055901;28;20166;-66
2022/07/14 10:42:53;;;;;;;4.97;1.67;;;;;;;;;;5055811;28;20261;-67
2022/07/14 10:45:19;;;;;;;5.90;1.80;;;;;;;;;;5055460;28;20654;-67
2022/07/14 10:47:50;;;;;;;6.40;2.80;;;;;;;;;;5055558;28;20662;-66
2022/07/14 10:50:20;;;;;;;4.50;1.90;;;;;;;;;;5055436;28;20245;-66
2022/07/14 10:52:55;;;;;;;4.20;2.00;;;;;;;;;;5037462;28;20179;-66
2022/07/14 10:55:22;;;;;;;3.97;1.60;;;;;;;;;;5037533;28;20178;-66
2022/07/14 10:58:04;;;;;;;6.50;2.00;;;;;;;;;;5055195;28;20206;-66
2022/07/14 11:00:39;;;;;;;7.20;2.00;;;;;;;;;;5055260;28;20174;-66
2022/07/14 11:03:18;;;;;;;3.30;1.63;;;;;;;;;;5055468;28;20261;-66
2022/07/14 11:06:08;;;;;;;4.43;1.80;;;;;;;;;;5055256;28;20208;-66
2022/07/14 11:08:38;;;;;;;4.30;1.67;;;;;;;;;;5054818;28;20206;-66
2022/07/14 11:11:08;;;;;;;4.97;1.80;;;;;;;;;;5055053;28;20257;-66
2022/07/14 11:13:34;;;;;;;2.03;1.60;;;;;;;;;;5055412;28;20254;-66
2022/07/14 11:16:03;;;;;;;6.20;2.60;;;;;;;;;;5054440;28;20206;-66
2022/07/14 11:18:33;;;;;;;3.53;1.97;;;;;;;;;;5054898;28;20190;-66
2022/07/14 11:21:06;;;;;;;3.23;1.67;;;;;;;;;;5055015;28;20209;-66
2022/07/14 11:23:32;;;;;;;1.70;1.40;;;;;;;;;;5054607;28;20174;-66
2022/07/14 11:26:01;;;;;;;3.07;1.43;;;;;;;;;;5055082;28;20661;-66
2022/07/14 11:28:42;;;;;;;1.70;1.60;;;;;;;;;;5054693;28;20191;-66
2022/07/14 11:31:13;;;;;;;2.57;1.70;;;;;;;;;;5054776;28;20170;-66
2022/07/14 11:36:28;;;;;;;3.47;1.80;;;;;;;;;;5054651;28;20173;-66
2022/07/14 11:39:13;;;;;;;4.60;1.90;;;;;;;;;;5036716;28;20290;-66
2022/07/14 11:41:43;;;;;;;6.63;1.80;;;;;;;;;;5054588;28;20240;-66
2022/07/14 11:44:28;;;;;;;1.83;1.33;;;;;;;;;;5054731;28;20201;-66
2022/07/14 11:46:58;;;;;;;5.10;2.00;;;;;;;;;;5054416;28;20186;-66
2022/07/14 11:49:25;;;;;;;3.37;1.83;;;;;;;;;;5054874;28;20400;-66
2022/07/14 11:51:52;;;;;;;1.70;1.60;;;;;;;;;;5054651;28;20178;-65
2022/07/14 11:54:18;;;;;;;3.53;1.60;;;;;;;;;;5054466;28;20608;-66
2022/07/14 11:56:44;;;;;;;5.60;2.63;;;;;;;;;;5054938;28;20606;-66
2022/07/14 11:59:16;;;;;;;3.63;1.83;;;;;;;;;;5036026;28;20301;-66
2022/07/14 12:01:43;;;;;;;4.30;1.80;;;;;;;;;;5054128;28;20237;-65
2022/07/14 12:04:10;;;;;;;6.33;1.60;;;;;;;;;;5054134;28;20571;-66
2022/07/14 12:06:40;;;;;;;2.63;1.50;;;;;;;;;;5054129;28;20654;-66
2022/07/14 12:09:07;;;;;;;4.83;1.77;;;;;;;;;;5035854;28;20643;-66
2022/07/14 12:11:33;;;;;;;6.27;1.73;;;;;;;;;;5054097;28;20253;-66
2022/07/14 12:13:59;;;;;;;3.30;1.60;;;;;;;;;;5053740;28;20610;-66
2022/07/14 12:16:25;;;;;;;2.90;1.70;;;;;;;;;;5035785;28;20232;-66
2022/07/14 12:18:52;;;;;;;3.47;1.67;;;;;;;;;;5053992;28;20209;-66
2022/07/14 12:21:31;;;;;;;2.43;1.70;;;;;;;;;;5035758;28;20186;-66
2022/07/14 12:23:57;;;;;;;3.23;1.77;;;;;;;;;;5054190;28;20201;-66
2022/07/14 12:26:24;;;;;;;5.13;1.70;;;;;;;;;;5036088;28;20223;-66
2022/07/14 12:28:51;;;;;;;5.10;1.87;;;;;;;;;;5052772;28;20199;-66
2022/07/14 12:31:19;;;;;;;4.13;1.53;;;;;;;;;;5053709;28;20178;-66
2022/07/14 12:33:46;;;;;;;5.57;1.97;;;;;;;;;;5053729;28;20174;-66
2022/07/14 12:36:13;;;;;;;3.07;1.70;;;;;;;;;;5036180;28;20534;-65
2022/07/14 12:38:40;;;;;;;3.30;1.73;;;;;;;;;;5053651;28;20201;-65
2022/07/14 12:41:06;;;;;;;2.57;1.70;;;;;;;;;;5053548;28;20541;-66
2022/07/14 12:43:36;;;;;;;1.50;1.40;;;;;;;;;;5053354;28;20174;-65
2022/07/14 12:46:07;;;;;;;4.13;1.73;;;;;;;;;;5053344;28;20188;-66
2022/07/14 12:48:34;;;;;;;3.57;1.77;;;;;;;;;;5053351;28;20190;-66
2022/07/14 12:51:36;;;;;;;4.00;2.00;;;;;;;;;;5053271;28;20194;-66
2022/07/14 12:54:06;;;;;;;4.37;1.80;;;;;;;;;;4972399;28;20184;-66
2022/07/14 12:56:37;;;;;;;4.40;1.57;;;;;;;;;;5022130;28;20190;-66
2022/07/14 12:59:05;;;;;;;4.50;2.00;;;;;;;;;;5053118;28;20273;-66
2022/07/14 13:01:33;;;;;;;2.73;1.70;;;;;;;;;;5035228;28;20178;-66
2022/07/14 13:04:00;;;;;;;2.13;1.47;;;;;;;;;;5053067;28;20198;-66
2022/07/14 13:06:27;;;;;;;4.43;1.70;;;;;;;;;;5035112;28;20244;-66
2022/07/14 13:08:53;;;;;;;3.30;1.70;;;;;;;;;;5052754;28;20693;-66
2022/07/14 13:11:19;;;;;;;2.33;1.63;;;;;;;;;;5035379;28;20545;-66
2022/07/14 13:13:48;;;;;;;5.30;1.67;;;;;;;;;;5052849;28;20174;-66
2022/07/14 13:16:14;;;;;;;4.13;1.87;;;;;;;;;;5034914;28;20547;-66
2022/07/14 13:19:04;;;;;;;2.27;1.43;;;;;;;;;;5052897;28;20186;-65
2022/07/14 13:21:49;;;;;;;2.97;1.57;;;;;;;;;;5043089;28;20650;-66
2022/07/14 13:24:23;;;;;;;2.70;1.73;;;;;;;;;;5052752;28;20781;-66
2022/07/14 13:27:02;;;;;;;4.87;1.80;;;;;;;;;;5052925;28;20170;-66
2022/07/14 13:29:28;;;;;;;4.17;1.97;;;;;;;;;;5035230;28;20567;-66
2022/07/14 13:31:54;;;;;;;3.27;1.60;;;;;;;;;;5053048;28;20662;-65
2022/07/14 13:34:20;;;;;;;4.30;1.70;;;;;;;;;;5035099;28;20186;-65
2022/07/14 13:36:47;;;;;;;2.67;1.53;;;;;;;;;;5052939;28;20206;-65
2022/07/14 13:39:13;;;;;;;4.37;1.60;;;;;;;;;;5036665;28;20712;-65
2022/07/14 13:41:41;;;;;;;4.93;1.90;;;;;;;;;;5057145;28;20186;-65
2022/07/14 13:44:07;;;;;;;2.83;1.77;;;;;;;;;;5056943;28;20198;-65
2022/07/14 13:46:34;;;;;;;3.63;1.73;;;;;;;;;;5038948;28;20259;-65
2022/07/14 13:49:00;;;;;;;3.00;1.60;;;;;;;;;;5056880;28;20187;-65
2022/07/14 13:54:11;;;;;;;2.53;1.80;;;;;;;;;;5057297;28;20214;-65
2022/07/14 13:56:40;;;;;;;1.97;1.43;;;;;;;;;;5056962;28;20210;-65
2022/07/14 13:59:08;;;;;;;2.10;1.63;;;;;;;;;;5056536;28;20194;-65
2022/07/14 14:01:34;;;;;;;2.10;1.60;;;;;;;;;;5057021;28;20175;-65
2022/07/14 14:04:00;;;;;;;2.87;1.73;;;;;;;;;;5038472;28;20202;-66
2022/07/14 14:06:26;;;;;;;8.47;2.10;;;;;;;;;;5056575;28;20174;-65
2022/07/14 14:08:52;;;;;;;4.00;2.03;;;;;;;;;;5056155;28;20212;-65
2022/07/14 14:11:18;;;;;;;2.90;1.80;;;;;;;;;;5056621;28;20190;-65
2022/07/14 14:13:44;;;;;;;3.30;1.90;;;;;;;;;;5056498;28;20170;-65
2022/07/14 14:16:10;;;;;;;2.70;1.90;;;;;;;;;;5082356;22;20170;-67
2022/07/14 14:18:36;;;;;;;3.15;1.50;;;;;;;;;;5056094;28;20308;-66
2022/07/14 14:21:03;;;;;;;3.47;2.10;;;;;;;;;;5056251;28;20179;-68
2022/07/14 14:23:29;;;;;;;;;;;;;;;;;;5038619;28;20049;-67
2022/07/14 14:25:55;;;;;;;;;;;;;;;;;;5038455;28;20069;-67
2022/07/14 14:28:21;;;;;;;3.30;1.97;;;;;;;;;;5056149;28;20034;-65
2022/07/14 14:30:47;;;;;;;4.60;2.30;;;;;;;;;;5056151;28;20543;-65
2022/07/14 14:33:14;;;;;;;4.27;1.80;;;;;;;;;;5056090;28;20194;-66
2022/07/14 14:35:40;;;;;;;3.83;1.83;;;;;;;;;;5056299;28;20544;-66
2022/07/14 14:38:07;;;;;;;3.80;2.00;;;;;;;;;;5055815;28;20198;-65
2022/07/14 14:40:33;;;;;;;4.53;1.70;;;;;;;;;;5056034;28;20174;-65
2022/07/14 14:42:59;;;;;;;4.00;1.40;;;;;;;;;;5037758;28;20261;-66
2022/07/14 14:45:25;;;;;;;3.53;1.70;;;;;;;;;;5055837;28;20605;-66
2022/07/14 14:47:51;;;;;;;4.00;2.20;;;;;;;;;;5055534;28;20199;-66
2022/07/14 14:50:17;;;;;;;3.63;1.97;;;;;;;;;;5054717;28;20174;-65
2022/07/14 14:52:45;;;;;;;1.97;1.77;;;;;;;;;;5055764;28;20223;-66
2022/07/14 14:55:12;;;;;;;2.80;1.70;;;;;;;;;;5055609;28;20724;-66
2022/07/14 14:57:38;;;;;;;2.27;1.73;;;;;;;;;;5055431;28;20209;-66
2022/07/14 15:00:07;;;;;;;3.83;1.97;;;;;;;;;;5037591;28;20221;-66
2022/07/14 15:02:34;;;;;;;4.77;1.63;;;;;;;;;;5037501;28;20658;-67